sensor_id;sensor_type;location;lat;lon;timestamp;temperature;humidity
72883;DHT22;61017;37.812;-122.286;2022-11-20T00:00:46;16.80;66.60
72883;DHT22;61017;37.812;-122.286;2022-11-20T00:02:36;16.80;66.60
72883;DHT22;61017;37.812;-122.286;2022-11-20T00:04:26;16.80;66.50
72883;DHT22;61017;37.812;-122.286;2022-11-20T00:06:18;16.80;66.50
72883;DHT22;61017;37.812;-122.286;2022-11-20T00:08:11;16.80;66.50
72883;DHT22;61017;37.812;-122.286;2022-11-20T00:10:02;16.80;66.50
72883;DHT22;61017;37.812;-122.286;2022-11-20T00:11:52;16.80;66.50
72883;DHT22;61017;37.812;-122.286;2022-11-20T00:13:47;16.80;66.50
72883;DHT22;61017;37.812;-122.286;2022-11-20T00:15:38;16.90;66.50
72883;DHT22;61017;37.812;-122.286;2022-11-20T00:17:28;16.90;66.50
72883;DHT22;61017;37.812;-122.286;2022-11-20T00:19:18;16.90;66.50
72883;DHT22;61017;37.812;-122.286;2022-11-20T00:21:12;16.90;66.50
72883;DHT22;61017;37.812;-122.286;2022-11-20T00:23:07;16.90;66.60
72883;DHT22;61017;37.812;-122.286;2022-11-20T00:24:57;16.90;66.60
72883;DHT22;61017;37.812;-122.286;2022-11-20T00:27:09;16.90;66.80
72883;DHT22;61017;37.812;-122.286;2022-11-20T00:29:04;17.00;66.90
72883;DHT22;61017;37.812;-122.286;2022-11-20T00:31:07;16.90;67.20
72883;DHT22;61017;37.812;-122.286;2022-11-20T00:32:57;16.90;68.10
72883;DHT22;61017;37.812;-122.286;2022-11-20T00:34:51;17.00;69.90
72883;DHT22;61017;37.812;-122.286;2022-11-20T00:36:44;17.00;72.30
72883;DHT22;61017;37.812;-122.286;2022-11-20T00:38:38;17.00;75.70
72883;DHT22;61017;37.812;-122.286;2022-11-20T00:40:29;17.00;77.50
72883;DHT22;61017;37.812;-122.286;2022-11-20T00:42:19;17.10;78.30
72883;DHT22;61017;37.812;-122.286;2022-11-20T00:44:09;17.10;78.80
72883;DHT22;61017;37.812;-122.286;2022-11-20T00:46:02;17.10;79.40
72883;DHT22;61017;37.812;-122.286;2022-11-20T00:47:52;17.10;79.20
72883;DHT22;61017;37.812;-122.286;2022-11-20T00:49:42;17.10;79.20
72883;DHT22;61017;37.812;-122.286;2022-11-20T00:51:32;17.10;79.40
72883;DHT22;61017;37.812;-122.286;2022-11-20T00:53:22;17.10;79.50
72883;DHT22;61017;37.812;-122.286;2022-11-20T00:55:12;17.10;79.60
72883;DHT22;61017;37.812;-122.286;2022-11-20T00:57:05;17.20;79.70
72883;DHT22;61017;37.812;-122.286;2022-11-20T00:58:58;17.20;80.00
72883;DHT22;61017;37.812;-122.286;2022-11-20T01:00:49;17.20;79.70
72883;DHT22;61017;37.812;-122.286;2022-11-20T01:02:42;17.20;80.10
72883;DHT22;61017;37.812;-122.286;2022-11-20T01:04:32;17.20;79.50
72883;DHT22;61017;37.812;-122.286;2022-11-20T01:06:28;17.20;79.80
72883;DHT22;61017;37.812;-122.286;2022-11-20T01:08:19;17.20;79.40
72883;DHT22;61017;37.812;-122.286;2022-11-20T01:10:09;17.20;79.00
72883;DHT22;61017;37.812;-122.286;2022-11-20T01:12:01;17.20;78.40
72883;DHT22;61017;37.812;-122.286;2022-11-20T01:13:52;17.20;78.00
72883;DHT22;61017;37.812;-122.286;2022-11-20T01:15:43;17.20;77.60
72883;DHT22;61017;37.812;-122.286;2022-11-20T01:17:34;17.20;77.20
72883;DHT22;61017;37.812;-122.286;2022-11-20T01:19:24;17.20;76.90
72883;DHT22;61017;37.812;-122.286;2022-11-20T01:21:17;17.30;76.60
72883;DHT22;61017;37.812;-122.286;2022-11-20T01:23:08;17.30;76.30
72883;DHT22;61017;37.812;-122.286;2022-11-20T01:25:11;17.30;75.80
72883;DHT22;61017;37.812;-122.286;2022-11-20T01:27:02;17.30;75.60
72883;DHT22;61017;37.812;-122.286;2022-11-20T01:29:00;17.30;75.20
72883;DHT22;61017;37.812;-122.286;2022-11-20T01:30:57;17.30;74.90
72883;DHT22;61017;37.812;-122.286;2022-11-20T01:32:50;17.30;74.50
72883;DHT22;61017;37.812;-122.286;2022-11-20T01:34:41;17.30;75.20
72883;DHT22;61017;37.812;-122.286;2022-11-20T01:39:24;17.40;79.70
72883;DHT22;61017;37.812;-122.286;2022-11-20T01:41:32;17.40;81.00
72883;DHT22;61017;37.812;-122.286;2022-11-20T01:43:32;17.40;80.90
72883;DHT22;61017;37.812;-122.286;2022-11-20T01:47:50;17.50;80.70
72883;DHT22;61017;37.812;-122.286;2022-11-20T01:49:52;17.50;80.80
72883;DHT22;61017;37.812;-122.286;2022-11-20T01:51:48;17.50;80.60
72883;DHT22;61017;37.812;-122.286;2022-11-20T01:53:50;17.50;80.30
72883;DHT22;61017;37.812;-122.286;2022-11-20T01:55:45;17.50;80.10
72883;DHT22;61017;37.812;-122.286;2022-11-20T01:57:37;17.50;79.80
72883;DHT22;61017;37.812;-122.286;2022-11-20T01:59:40;17.50;79.70
72883;DHT22;61017;37.812;-122.286;2022-11-20T02:01:34;17.50;79.60
72883;DHT22;61017;37.812;-122.286;2022-11-20T02:03:27;17.50;79.50
72883;DHT22;61017;37.812;-122.286;2022-11-20T02:07:26;17.50;79.20
72883;DHT22;61017;37.812;-122.286;2022-11-20T02:09:19;17.60;79.10
72883;DHT22;61017;37.812;-122.286;2022-11-20T02:11:13;17.60;78.90
72883;DHT22;61017;37.812;-122.286;2022-11-20T02:13:04;17.60;78.80
72883;DHT22;61017;37.812;-122.286;2022-11-20T02:14:54;17.60;78.50
72883;DHT22;61017;37.812;-122.286;2022-11-20T02:16:48;17.60;78.30
72883;DHT22;61017;37.812;-122.286;2022-11-20T02:18:38;17.60;78.20
72883;DHT22;61017;37.812;-122.286;2022-11-20T02:20:29;17.60;78.00
72883;DHT22;61017;37.812;-122.286;2022-11-20T02:22:25;17.60;77.80
72883;DHT22;61017;37.812;-122.286;2022-11-20T02:24:18;17.60;77.80
72883;DHT22;61017;37.812;-122.286;2022-11-20T02:26:12;17.60;77.60
72883;DHT22;61017;37.812;-122.286;2022-11-20T02:28:04;17.60;77.30
72883;DHT22;61017;37.812;-122.286;2022-11-20T02:30:01;17.60;77.10
72883;DHT22;61017;37.812;-122.286;2022-11-20T02:31:52;17.60;77.10
72883;DHT22;61017;37.812;-122.286;2022-11-20T02:33:43;17.60;76.90
72883;DHT22;61017;37.812;-122.286;2022-11-20T02:37:26;17.60;76.50
72883;DHT22;61017;37.812;-122.286;2022-11-20T02:39:19;17.60;76.40
72883;DHT22;61017;37.812;-122.286;2022-11-20T02:41:09;17.60;76.20
72883;DHT22;61017;37.812;-122.286;2022-11-20T02:42:59;17.60;75.80
72883;DHT22;61017;37.812;-122.286;2022-11-20T02:44:49;17.60;75.70
72883;DHT22;61017;37.812;-122.286;2022-11-20T02:46:39;17.60;75.60
72883;DHT22;61017;37.812;-122.286;2022-11-20T02:48:29;17.60;75.20
72883;DHT22;61017;37.812;-122.286;2022-11-20T02:50:22;17.60;75.20
72883;DHT22;61017;37.812;-122.286;2022-11-20T02:52:12;17.60;75.00
72883;DHT22;61017;37.812;-122.286;2022-11-20T02:54:02;17.60;74.80
72883;DHT22;61017;37.812;-122.286;2022-11-20T02:55:53;17.60;74.90
72883;DHT22;61017;37.812;-122.286;2022-11-20T02:57:43;17.60;74.50
72883;DHT22;61017;37.812;-122.286;2022-11-20T02:59:33;17.60;74.40
72883;DHT22;61017;37.812;-122.286;2022-11-20T03:01:23;17.60;74.20
72883;DHT22;61017;37.812;-122.286;2022-11-20T03:03:14;17.60;74.10
72883;DHT22;61017;37.812;-122.286;2022-11-20T03:05:04;17.70;74.30
72883;DHT22;61017;37.812;-122.286;2022-11-20T03:06:55;17.60;74.30
72883;DHT22;61017;37.812;-122.286;2022-11-20T03:08:47;17.70;74.10
72883;DHT22;61017;37.812;-122.286;2022-11-20T03:10:37;17.70;73.80
72883;DHT22;61017;37.812;-122.286;2022-11-20T03:12:27;17.60;73.50
72883;DHT22;61017;37.812;-122.286;2022-11-20T03:14:18;17.60;73.10
72883;DHT22;61017;37.812;-122.286;2022-11-20T03:16:16;17.70;73.30
72883;DHT22;61017;37.812;-122.286;2022-11-20T03:18:10;17.70;73.20
72883;DHT22;61017;37.812;-122.286;2022-11-20T03:20:00;17.70;73.30
72883;DHT22;61017;37.812;-122.286;2022-11-20T03:21:50;17.70;73.30
72883;DHT22;61017;37.812;-122.286;2022-11-20T03:23:43;17.70;73.10
72883;DHT22;61017;37.812;-122.286;2022-11-20T03:25:33;17.70;73.10
72883;DHT22;61017;37.812;-122.286;2022-11-20T03:27:23;17.70;73.10
72883;DHT22;61017;37.812;-122.286;2022-11-20T03:29:18;17.70;72.40
72883;DHT22;61017;37.812;-122.286;2022-11-20T03:31:15;17.70;72.20
72883;DHT22;61017;37.812;-122.286;2022-11-20T03:33:05;17.70;71.70
72883;DHT22;61017;37.812;-122.286;2022-11-20T03:34:55;17.70;72.00
72883;DHT22;61017;37.812;-122.286;2022-11-20T03:36:45;17.70;72.20
72883;DHT22;61017;37.812;-122.286;2022-11-20T03:38:35;17.70;72.30
72883;DHT22;61017;37.812;-122.286;2022-11-20T03:40:26;17.70;72.20
72883;DHT22;61017;37.812;-122.286;2022-11-20T03:42:18;17.60;71.90
72883;DHT22;61017;37.812;-122.286;2022-11-20T03:44:11;17.70;72.10
72883;DHT22;61017;37.812;-122.286;2022-11-20T03:46:05;17.70;71.80
72883;DHT22;61017;37.812;-122.286;2022-11-20T03:47:54;17.60;71.30
72883;DHT22;61017;37.812;-122.286;2022-11-20T03:49:47;17.60;71.40
72883;DHT22;61017;37.812;-122.286;2022-11-20T03:51:38;17.60;70.90
72883;DHT22;61017;37.812;-122.286;2022-11-20T03:53:28;17.60;70.40
72883;DHT22;61017;37.812;-122.286;2022-11-20T03:55:20;17.60;70.80
72883;DHT22;61017;37.812;-122.286;2022-11-20T03:57:13;17.60;71.10
72883;DHT22;61017;37.812;-122.286;2022-11-20T03:59:04;17.60;71.30
72883;DHT22;61017;37.812;-122.286;2022-11-20T04:00:54;17.70;71.60
72883;DHT22;61017;37.812;-122.286;2022-11-20T04:02:44;17.60;71.60
72883;DHT22;61017;37.812;-122.286;2022-11-20T04:04:36;17.60;71.60
72883;DHT22;61017;37.812;-122.286;2022-11-20T04:06:30;17.60;71.70
72883;DHT22;61017;37.812;-122.286;2022-11-20T04:08:23;17.60;71.80
72883;DHT22;61017;37.812;-122.286;2022-11-20T04:10:18;17.60;72.00
72883;DHT22;61017;37.812;-122.286;2022-11-20T04:12:09;17.70;72.20
72883;DHT22;61017;37.812;-122.286;2022-11-20T04:14:03;17.60;72.10
72883;DHT22;61017;37.812;-122.286;2022-11-20T04:15:57;17.60;72.20
72883;DHT22;61017;37.812;-122.286;2022-11-20T04:17:47;17.60;72.20
72883;DHT22;61017;37.812;-122.286;2022-11-20T04:19:37;17.60;71.70
72883;DHT22;61017;37.812;-122.286;2022-11-20T04:21:27;17.70;71.90
72883;DHT22;61017;37.812;-122.286;2022-11-20T04:23:26;17.60;71.90
72883;DHT22;61017;37.812;-122.286;2022-11-20T04:25:18;17.70;72.10
72883;DHT22;61017;37.812;-122.286;2022-11-20T04:27:08;17.70;72.20
72883;DHT22;61017;37.812;-122.286;2022-11-20T04:28:59;17.70;72.50
72883;DHT22;61017;37.812;-122.286;2022-11-20T04:30:50;17.70;72.20
72883;DHT22;61017;37.812;-122.286;2022-11-20T04:32:40;17.70;72.20
72883;DHT22;61017;37.812;-122.286;2022-11-20T04:34:30;17.70;72.00
72883;DHT22;61017;37.812;-122.286;2022-11-20T04:36:25;17.70;72.10
72883;DHT22;61017;37.812;-122.286;2022-11-20T04:38:15;17.70;72.20
72883;DHT22;61017;37.812;-122.286;2022-11-20T04:40:05;17.70;72.10
72883;DHT22;61017;37.812;-122.286;2022-11-20T04:41:56;17.70;72.30
72883;DHT22;61017;37.812;-122.286;2022-11-20T04:43:47;17.70;72.30
72883;DHT22;61017;37.812;-122.286;2022-11-20T04:45:38;17.70;72.40
72883;DHT22;61017;37.812;-122.286;2022-11-20T04:47:28;17.70;72.30
72883;DHT22;61017;37.812;-122.286;2022-11-20T04:49:18;17.70;72.30
72883;DHT22;61017;37.812;-122.286;2022-11-20T04:51:11;17.60;72.30
72883;DHT22;61017;37.812;-122.286;2022-11-20T04:53:01;17.70;72.30
72883;DHT22;61017;37.812;-122.286;2022-11-20T04:54:51;17.60;72.20
72883;DHT22;61017;37.812;-122.286;2022-11-20T04:56:42;17.60;72.20
72883;DHT22;61017;37.812;-122.286;2022-11-20T04:58:34;17.60;72.20
72883;DHT22;61017;37.812;-122.286;2022-11-20T05:00:27;17.60;72.20
72883;DHT22;61017;37.812;-122.286;2022-11-20T05:02:17;17.60;72.20
72883;DHT22;61017;37.812;-122.286;2022-11-20T05:04:08;17.60;72.10
72883;DHT22;61017;37.812;-122.286;2022-11-20T05:06:01;17.60;72.10
72883;DHT22;61017;37.812;-122.286;2022-11-20T05:07:51;17.60;72.10
72883;DHT22;61017;37.812;-122.286;2022-11-20T05:09:41;17.60;72.10
72883;DHT22;61017;37.812;-122.286;2022-11-20T05:11:32;17.60;72.10
72883;DHT22;61017;37.812;-122.286;2022-11-20T05:13:22;17.60;72.90
72883;DHT22;61017;37.812;-122.286;2022-11-20T05:15:14;17.60;72.00
72883;DHT22;61017;37.812;-122.286;2022-11-20T05:17:11;17.60;72.00
72883;DHT22;61017;37.812;-122.286;2022-11-20T05:19:02;17.60;71.90
72883;DHT22;61017;37.812;-122.286;2022-11-20T05:21:02;17.60;72.00
72883;DHT22;61017;37.812;-122.286;2022-11-20T05:22:56;17.60;71.90
72883;DHT22;61017;37.812;-122.286;2022-11-20T05:24:45;17.60;71.70
72883;DHT22;61017;37.812;-122.286;2022-11-20T05:26:35;17.60;71.00
72883;DHT22;61017;37.812;-122.286;2022-11-20T05:28:27;17.60;71.70
72883;DHT22;61017;37.812;-122.286;2022-11-20T05:30:17;17.60;71.70
72883;DHT22;61017;37.812;-122.286;2022-11-20T05:32:08;17.60;71.60
72883;DHT22;61017;37.812;-122.286;2022-11-20T05:33:58;17.60;71.70
72883;DHT22;61017;37.812;-122.286;2022-11-20T05:35:51;17.60;71.70
72883;DHT22;61017;37.812;-122.286;2022-11-20T05:37:41;17.60;71.80
72883;DHT22;61017;37.812;-122.286;2022-11-20T05:39:32;17.70;71.80
72883;DHT22;61017;37.812;-122.286;2022-11-20T05:41:28;17.60;71.70
72883;DHT22;61017;37.812;-122.286;2022-11-20T05:43:19;17.60;71.80
72883;DHT22;61017;37.812;-122.286;2022-11-20T05:45:09;17.60;71.70
72883;DHT22;61017;37.812;-122.286;2022-11-20T05:46:59;17.60;71.80
72883;DHT22;61017;37.812;-122.286;2022-11-20T05:48:50;17.60;71.60
72883;DHT22;61017;37.812;-122.286;2022-11-20T05:50:41;17.60;71.60
72883;DHT22;61017;37.812;-122.286;2022-11-20T05:52:32;17.60;71.60
72883;DHT22;61017;37.812;-122.286;2022-11-20T05:54:25;17.60;71.60
72883;DHT22;61017;37.812;-122.286;2022-11-20T05:56:17;17.60;71.50
72883;DHT22;61017;37.812;-122.286;2022-11-20T05:58:07;17.60;71.50
72883;DHT22;61017;37.812;-122.286;2022-11-20T05:59:57;17.60;71.50
72883;DHT22;61017;37.812;-122.286;2022-11-20T06:01:47;17.60;72.20
72883;DHT22;61017;37.812;-122.286;2022-11-20T06:03:38;17.60;71.50
72883;DHT22;61017;37.812;-122.286;2022-11-20T06:05:29;17.60;71.40
72883;DHT22;61017;37.812;-122.286;2022-11-20T06:07:19;17.60;71.30
72883;DHT22;61017;37.812;-122.286;2022-11-20T06:09:09;17.60;71.30
72883;DHT22;61017;37.812;-122.286;2022-11-20T06:11:08;17.60;71.10
72883;DHT22;61017;37.812;-122.286;2022-11-20T06:13:00;17.60;71.10
72883;DHT22;61017;37.812;-122.286;2022-11-20T06:14:50;17.50;70.60
72883;DHT22;61017;37.812;-122.286;2022-11-20T06:16:40;17.50;70.60
72883;DHT22;61017;37.812;-122.286;2022-11-20T06:18:30;17.50;70.40
72883;DHT22;61017;37.812;-122.286;2022-11-20T06:20:25;17.50;70.50
72883;DHT22;61017;37.812;-122.286;2022-11-20T06:22:15;17.50;70.40
72883;DHT22;61017;37.812;-122.286;2022-11-20T06:24:06;17.50;70.10
72883;DHT22;61017;37.812;-122.286;2022-11-20T06:26:00;17.50;70.30
72883;DHT22;61017;37.812;-122.286;2022-11-20T06:27:51;17.50;71.30
72883;DHT22;61017;37.812;-122.286;2022-11-20T06:29:41;17.50;70.60
72883;DHT22;61017;37.812;-122.286;2022-11-20T06:31:31;17.50;70.70
72883;DHT22;61017;37.812;-122.286;2022-11-20T06:33:22;17.50;70.70
72883;DHT22;61017;37.812;-122.286;2022-11-20T06:35:12;17.50;70.70
72883;DHT22;61017;37.812;-122.286;2022-11-20T06:37:02;17.50;70.70
72883;DHT22;61017;37.812;-122.286;2022-11-20T06:38:55;17.50;70.80
72883;DHT22;61017;37.812;-122.286;2022-11-20T06:40:48;17.50;70.70
72883;DHT22;61017;37.812;-122.286;2022-11-20T06:42:48;17.50;70.60
72883;DHT22;61017;37.812;-122.286;2022-11-20T06:44:37;17.50;70.50
72883;DHT22;61017;37.812;-122.286;2022-11-20T06:46:27;17.50;70.60
72883;DHT22;61017;37.812;-122.286;2022-11-20T06:48:17;17.50;70.50
72883;DHT22;61017;37.812;-122.286;2022-11-20T06:50:07;17.50;70.50
72883;DHT22;61017;37.812;-122.286;2022-11-20T06:51:57;17.40;70.40
72883;DHT22;61017;37.812;-122.286;2022-11-20T06:53:51;17.40;69.90
72883;DHT22;61017;37.812;-122.286;2022-11-20T06:55:49;17.40;69.90
72883;DHT22;61017;37.812;-122.286;2022-11-20T06:57:39;17.40;70.00
72883;DHT22;61017;37.812;-122.286;2022-11-20T06:59:29;17.40;70.10
72883;DHT22;61017;37.812;-122.286;2022-11-20T07:01:19;17.40;70.10
72883;DHT22;61017;37.812;-122.286;2022-11-20T07:03:10;17.40;70.20
72883;DHT22;61017;37.812;-122.286;2022-11-20T07:05:01;17.40;70.00
72883;DHT22;61017;37.812;-122.286;2022-11-20T07:06:51;17.40;70.00
72883;DHT22;61017;37.812;-122.286;2022-11-20T07:08:41;17.40;70.00
72883;DHT22;61017;37.812;-122.286;2022-11-20T07:10:31;17.40;70.00
72883;DHT22;61017;37.812;-122.286;2022-11-20T07:15:52;17.40;70.00
72883;DHT22;61017;37.812;-122.286;2022-11-20T07:23:24;17.30;69.80
72883;DHT22;61017;37.812;-122.286;2022-11-20T07:31:59;17.30;69.50
72883;DHT22;61017;37.812;-122.286;2022-11-20T07:33:49;17.30;69.50
72883;DHT22;61017;37.812;-122.286;2022-11-20T07:35:42;17.30;69.30
72883;DHT22;61017;37.812;-122.286;2022-11-20T07:37:34;17.30;69.30
72883;DHT22;61017;37.812;-122.286;2022-11-20T07:39:24;17.30;69.20
72883;DHT22;61017;37.812;-122.286;2022-11-20T07:41:15;17.30;68.80
72883;DHT22;61017;37.812;-122.286;2022-11-20T07:43:05;17.30;68.60
72883;DHT22;61017;37.812;-122.286;2022-11-20T07:44:55;17.30;69.00
72883;DHT22;61017;37.812;-122.286;2022-11-20T07:46:46;17.30;68.90
72883;DHT22;61017;37.812;-122.286;2022-11-20T07:48:36;17.30;68.90
72883;DHT22;61017;37.812;-122.286;2022-11-20T07:50:27;17.20;68.80
72883;DHT22;61017;37.812;-122.286;2022-11-20T07:52:17;17.20;68.80
72883;DHT22;61017;37.812;-122.286;2022-11-20T07:54:07;17.20;69.50
72883;DHT22;61017;37.812;-122.286;2022-11-20T07:56:00;17.20;68.80
72883;DHT22;61017;37.812;-122.286;2022-11-20T07:57:55;17.20;68.60
72883;DHT22;61017;37.812;-122.286;2022-11-20T08:02:50;17.20;68.60
72883;DHT22;61017;37.812;-122.286;2022-11-20T08:04:40;17.20;68.70
72883;DHT22;61017;37.812;-122.286;2022-11-20T08:06:31;17.20;68.80
72883;DHT22;61017;37.812;-122.286;2022-11-20T08:08:41;17.20;68.60
72883;DHT22;61017;37.812;-122.286;2022-11-20T08:10:55;17.20;68.40
72883;DHT22;61017;37.812;-122.286;2022-11-20T08:12:52;17.20;68.10
72883;DHT22;61017;37.812;-122.286;2022-11-20T08:14:59;17.20;68.00
72883;DHT22;61017;37.812;-122.286;2022-11-20T08:17:04;17.20;68.10
72883;DHT22;61017;37.812;-122.286;2022-11-20T08:19:06;17.20;67.90
72883;DHT22;61017;37.812;-122.286;2022-11-20T08:21:06;17.20;67.90
72883;DHT22;61017;37.812;-122.286;2022-11-20T08:23:01;17.10;67.90
72883;DHT22;61017;37.812;-122.286;2022-11-20T08:25:16;17.10;67.60
72883;DHT22;61017;37.812;-122.286;2022-11-20T08:27:12;17.10;67.30
72883;DHT22;61017;37.812;-122.286;2022-11-20T08:29:18;17.10;67.30
72883;DHT22;61017;37.812;-122.286;2022-11-20T08:31:21;17.10;67.40
72883;DHT22;61017;37.812;-122.286;2022-11-20T08:33:47;17.10;67.20
72883;DHT22;61017;37.812;-122.286;2022-11-20T08:35:58;17.10;67.30
72883;DHT22;61017;37.812;-122.286;2022-11-20T08:38:06;17.10;67.30
72883;DHT22;61017;37.812;-122.286;2022-11-20T08:42:31;17.10;67.20
72883;DHT22;61017;37.812;-122.286;2022-11-20T08:44:39;17.00;67.10
72883;DHT22;61017;37.812;-122.286;2022-11-20T08:46:43;17.00;67.60
72883;DHT22;61017;37.812;-122.286;2022-11-20T08:48:42;17.00;67.00
72883;DHT22;61017;37.812;-122.286;2022-11-20T08:50:32;17.00;66.90
72883;DHT22;61017;37.812;-122.286;2022-11-20T08:52:22;17.00;67.20
72883;DHT22;61017;37.812;-122.286;2022-11-20T08:54:20;17.00;67.20
72883;DHT22;61017;37.812;-122.286;2022-11-20T08:56:20;17.00;67.00
72883;DHT22;61017;37.812;-122.286;2022-11-20T08:58:27;17.00;66.80
72883;DHT22;61017;37.812;-122.286;2022-11-20T09:01:04;17.00;67.20
72883;DHT22;61017;37.812;-122.286;2022-11-20T09:02:41;17.00;67.30
72883;DHT22;61017;37.812;-122.286;2022-11-20T09:04:42;17.00;67.00
72883;DHT22;61017;37.812;-122.286;2022-11-20T09:06:34;17.00;67.10
72883;DHT22;61017;37.812;-122.286;2022-11-20T09:08:26;17.00;67.10
72883;DHT22;61017;37.812;-122.286;2022-11-20T09:10:16;17.00;67.30
72883;DHT22;61017;37.812;-122.286;2022-11-20T09:12:06;17.00;67.50
72883;DHT22;61017;37.812;-122.286;2022-11-20T09:13:57;17.00;67.60
72883;DHT22;61017;37.812;-122.286;2022-11-20T09:15:52;17.00;67.50
72883;DHT22;61017;37.812;-122.286;2022-11-20T09:17:57;17.00;67.50
72883;DHT22;61017;37.812;-122.286;2022-11-20T09:19:48;16.90;67.20
72883;DHT22;61017;37.812;-122.286;2022-11-20T09:21:46;16.90;67.20
72883;DHT22;61017;37.812;-122.286;2022-11-20T09:23:45;16.90;67.20
72883;DHT22;61017;37.812;-122.286;2022-11-20T09:25:38;16.90;67.20
72883;DHT22;61017;37.812;-122.286;2022-11-20T09:27:35;16.90;67.60
72883;DHT22;61017;37.812;-122.286;2022-11-20T09:29:40;16.90;67.30
72883;DHT22;61017;37.812;-122.286;2022-11-20T09:31:57;16.90;67.30
72883;DHT22;61017;37.812;-122.286;2022-11-20T09:33:46;16.90;67.50
72883;DHT22;61017;37.812;-122.286;2022-11-20T09:35:58;16.90;67.50
72883;DHT22;61017;37.812;-122.286;2022-11-20T09:37:52;16.80;67.50
72883;DHT22;61017;37.812;-122.286;2022-11-20T09:39:51;16.80;67.30
72883;DHT22;61017;37.812;-122.286;2022-11-20T09:44:49;16.80;66.80
72883;DHT22;61017;37.812;-122.286;2022-11-20T09:47:17;16.80;66.90
72883;DHT22;61017;37.812;-122.286;2022-11-20T09:54:15;16.80;66.90
72883;DHT22;61017;37.812;-122.286;2022-11-20T09:56:14;16.80;66.90
72883;DHT22;61017;37.812;-122.286;2022-11-20T09:58:49;16.70;66.90
72883;DHT22;61017;37.812;-122.286;2022-11-20T10:00:46;16.70;66.90
72883;DHT22;61017;37.812;-122.286;2022-11-20T10:02:59;16.70;66.80
72883;DHT22;61017;37.812;-122.286;2022-11-20T10:18:20;16.70;66.80
72883;DHT22;61017;37.812;-122.286;2022-11-20T10:24:43;16.60;66.70
72883;DHT22;61017;37.812;-122.286;2022-11-20T10:31:42;16.60;67.10
72883;DHT22;61017;37.812;-122.286;2022-11-20T10:33:39;16.60;67.00
72883;DHT22;61017;37.812;-122.286;2022-11-20T10:35:41;16.60;67.20
72883;DHT22;61017;37.812;-122.286;2022-11-20T10:37:37;16.60;67.30
72883;DHT22;61017;37.812;-122.286;2022-11-20T10:39:53;16.60;67.40
72883;DHT22;61017;37.812;-122.286;2022-11-20T10:41:50;16.50;67.10
72883;DHT22;61017;37.812;-122.286;2022-11-20T10:44:14;16.50;67.30
72883;DHT22;61017;37.812;-122.286;2022-11-20T10:46:11;16.50;67.20
72883;DHT22;61017;37.812;-122.286;2022-11-20T10:50:37;16.50;67.20
72883;DHT22;61017;37.812;-122.286;2022-11-20T10:53:16;16.50;67.20
72883;DHT22;61017;37.812;-122.286;2022-11-20T10:55:50;16.50;67.20
72883;DHT22;61017;37.812;-122.286;2022-11-20T10:58:10;16.50;67.10
72883;DHT22;61017;37.812;-122.286;2022-11-20T11:00:15;16.50;67.20
72883;DHT22;61017;37.812;-122.286;2022-11-20T11:02:31;16.40;67.10
72883;DHT22;61017;37.812;-122.286;2022-11-20T11:04:40;16.50;67.20
72883;DHT22;61017;37.812;-122.286;2022-11-20T11:06:42;16.40;67.00
72883;DHT22;61017;37.812;-122.286;2022-11-20T11:11:21;16.40;67.10
72883;DHT22;61017;37.812;-122.286;2022-11-20T11:13:31;16.40;67.10
72883;DHT22;61017;37.812;-122.286;2022-11-20T11:15:37;16.40;67.00
72883;DHT22;61017;37.812;-122.286;2022-11-20T11:17:32;16.40;66.90
72883;DHT22;61017;37.812;-122.286;2022-11-20T11:19:23;16.40;66.80
72883;DHT22;61017;37.812;-122.286;2022-11-20T11:21:25;16.40;66.80
72883;DHT22;61017;37.812;-122.286;2022-11-20T11:25:35;16.30;66.30
72883;DHT22;61017;37.812;-122.286;2022-11-20T11:27:25;16.30;66.20
72883;DHT22;61017;37.812;-122.286;2022-11-20T11:29:18;16.40;66.60
72883;DHT22;61017;37.812;-122.286;2022-11-20T11:31:23;16.30;66.30
72883;DHT22;61017;37.812;-122.286;2022-11-20T11:33:20;16.30;66.60
72883;DHT22;61017;37.812;-122.286;2022-11-20T11:35:31;16.30;66.40
72883;DHT22;61017;37.812;-122.286;2022-11-20T11:37:27;16.30;66.60
72883;DHT22;61017;37.812;-122.286;2022-11-20T11:39:33;16.30;66.40
72883;DHT22;61017;37.812;-122.286;2022-11-20T11:41:34;16.30;66.20
72883;DHT22;61017;37.812;-122.286;2022-11-20T11:43:35;16.30;66.20
72883;DHT22;61017;37.812;-122.286;2022-11-20T11:45:56;16.30;66.20
72883;DHT22;61017;37.812;-122.286;2022-11-20T11:47:51;16.20;66.10
72883;DHT22;61017;37.812;-122.286;2022-11-20T11:49:48;16.20;66.10
72883;DHT22;61017;37.812;-122.286;2022-11-20T11:52:02;16.20;66.00
72883;DHT22;61017;37.812;-122.286;2022-11-20T11:53:59;16.20;66.10
72883;DHT22;61017;37.812;-122.286;2022-11-20T11:56:08;16.20;66.50
72883;DHT22;61017;37.812;-122.286;2022-11-20T11:58:35;16.20;66.80
72883;DHT22;61017;37.812;-122.286;2022-11-20T12:00:30;16.20;66.90
72883;DHT22;61017;37.812;-122.286;2022-11-20T12:04:44;16.20;67.10
72883;DHT22;61017;37.812;-122.286;2022-11-20T12:06:37;16.20;67.30
72883;DHT22;61017;37.812;-122.286;2022-11-20T12:10:40;16.20;67.60
72883;DHT22;61017;37.812;-122.286;2022-11-20T12:12:43;16.10;67.70
72883;DHT22;61017;37.812;-122.286;2022-11-20T12:14:40;16.20;68.00
72883;DHT22;61017;37.812;-122.286;2022-11-20T12:16:36;16.10;68.00
72883;DHT22;61017;37.812;-122.286;2022-11-20T12:18:29;16.10;68.10
72883;DHT22;61017;37.812;-122.286;2022-11-20T12:20:20;16.10;68.20
72883;DHT22;61017;37.812;-122.286;2022-11-20T12:24:49;16.10;68.40
72883;DHT22;61017;37.812;-122.286;2022-11-20T12:26:51;16.10;68.50
72883;DHT22;61017;37.812;-122.286;2022-11-20T12:31:23;16.10;68.60
72883;DHT22;61017;37.812;-122.286;2022-11-20T12:33:55;16.00;68.60
72883;DHT22;61017;37.812;-122.286;2022-11-20T12:53:41;16.00;69.50
72883;DHT22;61017;37.812;-122.286;2022-11-20T12:57:31;16.00;69.50
72883;DHT22;61017;37.812;-122.286;2022-11-20T13:06:10;16.00;69.70
72883;DHT22;61017;37.812;-122.286;2022-11-20T13:07:38;15.90;69.70
72883;DHT22;61017;37.812;-122.286;2022-11-20T13:09:28;15.90;69.90
72883;DHT22;61017;37.812;-122.286;2022-11-20T13:13:42;15.90;69.80
72883;DHT22;61017;37.812;-122.286;2022-11-20T13:15:40;15.90;69.90
72883;DHT22;61017;37.812;-122.286;2022-11-20T13:17:53;15.90;69.80
72883;DHT22;61017;37.812;-122.286;2022-11-20T13:19:54;15.90;69.90
72883;DHT22;61017;37.812;-122.286;2022-11-20T13:21:47;15.90;69.90